createdAt,value
2023-05-13T00:00:23.981Z,9.571429
2023-05-13T00:05:27.005Z,7.000000
2023-05-13T00:10:31.245Z,7.000000
2023-05-13T00:15:34.061Z,7.000000
2023-05-13T00:20:16.143Z,7.666667
2023-05-13T00:25:19.724Z,9.000000
2023-05-13T00:30:23.203Z,14.714286
2023-05-13T00:35:26.238Z,25.000000
2023-05-13T00:40:28.570Z,39.000000
2023-05-13T00:45:30.834Z,67.000000
2023-05-13T00:50:33.628Z,56.333333
2023-05-13T00:55:16.047Z,35.000000
2023-05-13T01:00:18.815Z,34.666667
2023-05-13T01:05:22.233Z,34.000000
2023-05-13T01:10:24.689Z,36.666667
2023-05-13T01:15:27.607Z,42.000000
2023-05-13T01:20:30.456Z,43.333333
2023-05-13T01:25:32.572Z,46.000000
2023-05-13T01:30:34.427Z,46.000000
2023-05-13T01:35:16.445Z,46.000000
2023-05-13T01:40:31.809Z,48.666667
2023-05-13T01:45:20.763Z,54.000000
2023-05-13T01:50:23.726Z,39.000000
2023-05-13T01:55:26.293Z,12.000000
2023-05-13T02:00:28.111Z,11.333333
2023-05-13T02:05:31.002Z,10.000000
2023-05-13T02:10:32.862Z,19.333333
2023-05-13T02:15:34.926Z,38.000000
2023-05-13T02:20:16.630Z,27.000000
2023-05-13T02:25:18.806Z,5.000000
2023-05-13T02:30:21.116Z,5.666667
2023-05-13T02:35:22.897Z,7.000000
2023-05-13T02:40:25.219Z,7.333333
2023-05-13T02:45:27.388Z,8.000000
2023-05-13T02:50:29.312Z,8.666667
2023-05-13T02:55:31.868Z,10.000000
2023-05-13T03:00:34.038Z,9.666667
2023-05-13T03:05:36.384Z,9.000000
2023-05-13T03:10:17.676Z,8.666667
2023-05-13T03:15:19.606Z,8.000000
2023-05-13T03:20:21.772Z,8.333333
2023-05-13T03:25:23.529Z,9.000000
2023-05-13T03:30:25.505Z,9.000000
2023-05-13T03:35:27.464Z,9.000000
2023-05-13T03:40:29.316Z,8.333333
2023-05-13T03:45:31.454Z,7.000000
2023-05-13T03:50:33.306Z,8.000000
2023-05-13T03:55:35.710Z,10.000000
2023-05-13T04:00:19.110Z,9.000000
2023-05-13T04:05:20.511Z,7.000000
2023-05-13T04:10:23.117Z,7.357143
2023-05-13T04:15:26.583Z,8.000000
2023-05-13T04:20:29.714Z,9.000000
2023-05-13T04:25:32.373Z,11.000000
2023-05-13T04:30:36.240Z,10.000000
2023-05-13T04:35:18.656Z,8.000000
2023-05-13T04:40:21.563Z,8.000000
2023-05-13T04:45:23.897Z,8.000000
2023-05-13T04:50:26.774Z,6.666667
2023-05-13T04:55:31.008Z,4.000000
2023-05-13T05:00:32.405Z,5.333333
2023-05-13T05:05:35.223Z,8.000000
2023-05-13T05:10:17.973Z,7.666667
2023-05-13T05:15:20.765Z,7.000000
2023-05-13T05:20:23.406Z,6.285714
2023-05-13T05:25:26.593Z,5.000000
2023-05-13T05:30:30.807Z,5.000000
2023-05-13T05:35:31.950Z,5.000000
2023-05-13T05:40:34.810Z,5.000000
2023-05-13T05:45:17.478Z,5.000000
2023-05-13T05:50:19.192Z,6.000000
2023-05-13T05:55:21.161Z,8.000000
2023-05-13T06:00:24.030Z,8.000000
2023-05-13T06:05:27.007Z,8.000000
2023-05-13T06:10:29.326Z,8.666667
2023-05-13T06:15:31.972Z,10.000000
2023-05-13T06:20:35.239Z,9.666667
2023-05-13T06:25:16.246Z,9.000000
2023-05-13T06:30:19.008Z,7.666667
2023-05-13T06:35:21.955Z,5.000000
2023-05-13T06:40:25.340Z,6.071429
2023-05-13T06:45:27.572Z,8.000000
2023-05-13T06:50:30.048Z,7.666667
2023-05-13T06:55:32.948Z,7.000000
2023-05-13T07:00:35.271Z,6.333333
2023-05-13T07:05:18.187Z,5.000000
2023-05-13T07:10:21.099Z,5.666667
2023-05-13T07:15:23.290Z,7.000000
2023-05-13T07:20:25.705Z,6.333333
2023-05-13T07:25:28.736Z,5.000000
2023-05-13T07:30:31.164Z,6.000000
2023-05-13T07:35:33.594Z,8.000000
2023-05-13T07:40:35.637Z,7.666667
2023-05-13T07:45:18.002Z,7.000000
2023-05-13T07:50:21.449Z,7.333333
2023-05-13T07:55:24.092Z,8.000000
2023-05-13T08:00:27.076Z,6.666667
2023-05-13T08:05:30.739Z,4.000000
2023-05-13T08:10:34.299Z,5.000000
2023-05-13T08:15:16.792Z,7.000000
2023-05-13T08:20:19.230Z,7.333333
2023-05-13T08:25:21.663Z,8.000000
2023-05-13T08:30:24.769Z,7.642857
2023-05-13T08:35:27.693Z,7.000000
2023-05-13T08:40:30.322Z,7.000000
2023-05-13T08:45:33.265Z,7.000000
2023-05-13T08:50:35.888Z,7.333333
2023-05-13T08:55:17.853Z,8.000000
2023-05-13T09:00:21.576Z,7.666667
2023-05-13T09:05:24.574Z,7.000000
2023-05-13T09:10:26.119Z,6.000000
2023-05-13T09:15:28.627Z,4.000000
2023-05-13T09:20:31.318Z,5.000000
2023-05-13T09:25:34.174Z,7.000000
2023-05-13T09:30:16.217Z,6.666667
2023-05-13T09:35:18.482Z,6.000000
2023-05-13T09:40:21.676Z,6.333333
2023-05-13T09:45:23.988Z,7.000000
2023-05-13T09:50:26.150Z,7.666667
2023-05-13T09:55:28.829Z,9.000000
2023-05-13T10:00:33.173Z,9.000000
2023-05-13T10:05:34.944Z,9.000000
2023-05-13T10:10:17.326Z,7.666667
2023-05-13T10:15:20.333Z,5.000000
2023-05-13T10:20:23.379Z,5.714286
2023-05-13T10:25:25.835Z,7.000000
2023-05-13T10:30:29.120Z,6.666667
2023-05-13T10:35:31.349Z,6.000000
2023-05-13T10:40:34.959Z,6.666667
2023-05-13T10:45:18.008Z,8.000000
2023-05-13T10:50:20.428Z,7.666667
2023-05-13T10:55:22.929Z,7.000000
2023-05-13T11:00:25.162Z,7.000000
2023-05-13T11:05:27.682Z,7.000000
2023-05-13T11:10:30.890Z,7.000000
2023-05-13T11:15:33.553Z,7.000000
2023-05-13T11:20:16.492Z,7.333333
2023-05-13T11:25:19.358Z,8.000000
2023-05-13T11:30:22.356Z,7.600000
2023-05-13T11:35:24.440Z,7.000000
2023-05-13T11:40:26.611Z,7.000000
2023-05-13T11:45:29.860Z,7.000000
2023-05-13T11:50:31.900Z,7.333333
2023-05-13T11:55:33.847Z,8.000000
2023-05-13T12:00:16.137Z,7.000000
2023-05-13T12:05:19.474Z,5.000000
2023-05-13T12:10:22.723Z,5.714286
2023-05-13T12:15:25.487Z,7.000000
2023-05-13T12:20:27.855Z,7.000000
2023-05-13T12:25:30.951Z,7.000000
2023-05-13T12:30:33.761Z,7.666667
2023-05-13T12:35:15.971Z,9.000000
2023-05-13T12:40:18.553Z,9.000000
2023-05-13T12:45:21.533Z,9.000000
2023-05-13T12:50:23.440Z,9.000000
2023-05-13T12:55:25.567Z,9.000000
2023-05-13T13:00:30.147Z,8.333333
2023-05-13T13:05:31.192Z,7.000000
2023-05-13T13:10:33.356Z,7.666667
2023-05-13T13:15:16.012Z,9.000000
2023-05-13T13:20:18.903Z,8.000000
2023-05-13T13:25:21.462Z,6.000000
2023-05-13T13:30:25.169Z,7.428571
2023-05-13T13:35:26.766Z,10.000000
2023-05-13T13:40:30.146Z,9.666667
2023-05-13T13:45:31.316Z,9.000000
2023-05-13T13:50:33.762Z,8.666667
2023-05-13T13:55:35.920Z,8.000000
2023-05-13T14:00:18.124Z,7.333333
2023-05-13T14:05:20.832Z,6.000000
2023-05-13T14:10:23.703Z,7.071429
2023-05-13T14:15:25.475Z,9.000000
2023-05-13T14:20:28.328Z,9.000000
2023-05-13T14:25:31.015Z,9.000000
2023-05-13T14:30:33.808Z,8.000000
2023-05-13T14:35:35.707Z,8.000000
2023-05-13T14:40:17.925Z,8.000000
2023-05-13T14:45:20.455Z,8.000000
2023-05-13T14:50:23.109Z,8.357143
2023-05-13T14:55:25.832Z,9.000000
2023-05-13T15:00:28.174Z,8.666667
2023-05-13T15:05:31.074Z,8.000000
2023-05-13T15:10:33.882Z,8.333333
2023-05-13T15:15:15.756Z,9.000000
2023-05-13T15:20:18.438Z,8.666667
2023-05-13T15:25:21.547Z,8.000000
2023-05-13T15:30:24.226Z,8.714286
2023-05-13T15:35:26.905Z,10.000000
2023-05-13T15:40:29.998Z,9.000000
2023-05-13T15:45:32.335Z,7.000000
2023-05-13T15:50:34.848Z,7.333333
2023-05-13T15:55:17.689Z,8.000000
2023-05-13T16:00:20.255Z,7.666667
2023-05-13T16:05:22.268Z,7.000000
2023-05-13T16:10:25.052Z,7.000000
2023-05-13T16:15:27.138Z,7.000000
2023-05-13T16:20:29.950Z,7.000000
2023-05-13T16:25:32.256Z,7.000000
2023-05-13T16:30:34.744Z,7.333333
2023-05-13T16:35:17.329Z,8.000000
2023-05-13T16:40:20.159Z,8.000000
2023-05-13T16:45:22.728Z,8.000000
2023-05-13T16:50:25.367Z,7.666667
2023-05-13T16:55:27.862Z,7.000000
2023-05-13T17:00:30.963Z,7.000000
2023-05-13T17:05:33.706Z,7.000000
2023-05-13T17:10:15.773Z,7.000000
2023-05-13T17:15:18.449Z,7.000000
2023-05-13T17:20:20.853Z,70.333333
2023-05-13T17:25:22.966Z,197.000000
2023-05-13T17:30:25.491Z,133.333333
2023-05-13T17:35:28.495Z,6.000000
2023-05-13T17:40:31.234Z,7.000000
2023-05-13T17:45:33.622Z,9.000000
2023-05-13T17:50:35.778Z,8.000000
2023-05-13T17:55:18.765Z,6.000000
2023-05-13T18:00:22.340Z,6.000000
2023-05-13T18:05:24.478Z,6.000000
2023-05-13T18:10:26.798Z,6.333333
2023-05-13T18:15:29.445Z,7.000000
2023-05-13T18:20:32.217Z,6.666667
2023-05-13T18:25:45.131Z,6.000000
2023-05-13T18:30:19.349Z,6.000000
2023-05-13T18:35:21.328Z,6.000000
2023-05-13T18:40:24.502Z,6.714286
2023-05-13T18:45:27.614Z,8.000000
2023-05-13T18:50:29.797Z,7.333333
2023-05-13T18:55:31.930Z,6.000000
2023-05-13T19:00:34.431Z,6.666667
2023-05-13T19:05:17.504Z,8.000000
2023-05-13T19:10:18.885Z,7.333333
2023-05-13T19:15:21.145Z,6.000000
2023-05-13T19:20:23.434Z,7.071429
2023-05-13T19:25:25.705Z,9.000000
2023-05-13T19:30:28.440Z,8.000000
2023-05-13T19:35:31.351Z,6.000000
2023-05-13T19:40:21.057Z,6.000000
2023-05-13T19:45:22.631Z,6.000000
2023-05-13T19:50:25.315Z,6.000000
2023-05-13T19:55:27.692Z,6.000000
2023-05-13T20:00:30.723Z,6.000000
2023-05-13T20:05:33.926Z,6.000000
2023-05-13T20:10:16.151Z,5.666667
2023-05-13T20:15:18.811Z,5.000000
2023-05-13T20:20:21.475Z,5.666667
2023-05-13T20:25:24.089Z,7.000000
2023-05-13T20:30:26.781Z,6.666667
2023-05-13T20:35:29.406Z,6.000000
2023-05-13T20:40:31.654Z,6.666667
2023-05-13T20:45:34.743Z,8.000000
2023-05-13T20:50:16.548Z,8.666667
2023-05-13T20:55:19.262Z,10.000000
2023-05-13T21:00:22.414Z,8.571429
2023-05-13T21:05:24.691Z,6.000000
2023-05-13T21:10:26.996Z,6.000000
2023-05-13T21:15:29.890Z,6.000000
2023-05-13T21:20:32.108Z,6.000000
2023-05-13T21:25:35.508Z,6.000000
2023-05-13T21:30:18.407Z,6.333333
2023-05-13T21:35:20.693Z,7.000000
2023-05-13T21:40:22.969Z,6.642857
2023-05-13T21:45:25.182Z,6.000000
2023-05-13T21:50:27.581Z,6.333333
2023-05-13T21:55:30.510Z,7.000000
2023-05-13T22:00:32.835Z,6.666667
2023-05-13T22:05:35.811Z,6.000000
2023-05-13T22:10:17.549Z,6.333333
2023-05-13T22:15:19.853Z,7.000000
2023-05-13T22:20:22.778Z,7.000000
2023-05-13T22:25:24.365Z,7.000000
2023-05-13T22:30:27.432Z,7.333333
2023-05-13T22:35:29.703Z,8.000000
2023-05-13T22:40:32.233Z,7.333333
2023-05-13T22:45:34.071Z,6.000000
2023-05-13T22:50:17.303Z,6.333333
2023-05-13T22:55:18.815Z,7.000000
2023-05-13T23:00:21.315Z,6.666667
2023-05-13T23:05:23.579Z,6.000000
2023-05-13T23:10:26.097Z,6.000000
2023-05-13T23:15:28.141Z,6.000000
2023-05-13T23:20:30.397Z,6.333333
2023-05-13T23:25:32.662Z,7.000000
2023-05-13T23:30:35.045Z,7.000000
2023-05-13T23:35:16.786Z,7.000000
2023-05-13T23:40:19.732Z,6.666667
2023-05-13T23:45:22.077Z,6.000000
2023-05-13T23:50:25.188Z,6.000000
2023-05-13T23:55:27.175Z,6.000000
